sensor_id;sensor_type;location;lat;lon;timestamp;pressure;altitude;pressure_sealevel;temperature;humidity
83691;BME280;73671;43.220;0.064;2023-11-21T00:01:25;98346.75;;;10.02;69.60
83691;BME280;73671;43.220;0.064;2023-11-21T00:03:50;98344.28;;;10.07;69.78
83691;BME280;73671;43.220;0.064;2023-11-21T00:06:19;98339.97;;;10.10;69.62
83691;BME280;73671;43.220;0.064;2023-11-21T00:08:45;98333.34;;;10.11;69.36
83691;BME280;73671;43.220;0.064;2023-11-21T00:11:11;98338.28;;;10.16;69.37
83691;BME280;73671;43.220;0.064;2023-11-21T00:13:36;98339.81;;;10.17;68.58
83691;BME280;73671;43.220;0.064;2023-11-21T00:16:03;98334.72;;;10.19;69.26
83691;BME280;73671;43.220;0.064;2023-11-21T00:18:29;98328.41;;;10.22;69.26
83691;BME280;73671;43.220;0.064;2023-11-21T00:20:54;98328.75;;;10.24;68.77
83691;BME280;73671;43.220;0.064;2023-11-21T00:23:20;98322.47;;;10.27;68.59
83691;BME280;73671;43.220;0.064;2023-11-21T00:25:45;98330.22;;;10.29;68.92
83691;BME280;73671;43.220;0.064;2023-11-21T00:28:10;98329.47;;;10.28;68.32
83691;BME280;73671;43.220;0.064;2023-11-21T00:30:36;98332.53;;;10.30;68.15
83691;BME280;73671;43.220;0.064;2023-11-21T00:33:01;98330.56;;;10.31;68.25
83691;BME280;73671;43.220;0.064;2023-11-21T00:35:27;98321.31;;;10.28;68.33
83691;BME280;73671;43.220;0.064;2023-11-21T00:37:52;98321.09;;;10.19;67.68
83691;BME280;73671;43.220;0.064;2023-11-21T00:40:17;98311.91;;;10.13;67.57
83691;BME280;73671;43.220;0.064;2023-11-21T00:42:46;98323.47;;;10.17;67.88
83691;BME280;73671;43.220;0.064;2023-11-21T00:45:12;98320.50;;;10.11;67.62
83691;BME280;73671;43.220;0.064;2023-11-21T00:47:37;98330.94;;;10.13;68.10
83691;BME280;73671;43.220;0.064;2023-11-21T00:50:04;98325.84;;;10.15;68.33
83691;BME280;73671;43.220;0.064;2023-11-21T00:52:31;98322.78;;;10.13;68.56
83691;BME280;73671;43.220;0.064;2023-11-21T00:54:56;98321.34;;;10.08;68.61
83691;BME280;73671;43.220;0.064;2023-11-21T00:57:24;98314.47;;;10.04;68.83
83691;BME280;73671;43.220;0.064;2023-11-21T00:59:49;98310.88;;;10.07;68.72
83691;BME280;73671;43.220;0.064;2023-11-21T01:02:15;98306.63;;;10.06;68.84
83691;BME280;73671;43.220;0.064;2023-11-21T01:04:40;98305.25;;;9.97;69.37
83691;BME280;73671;43.220;0.064;2023-11-21T01:07:06;98312.22;;;9.98;68.59
83691;BME280;73671;43.220;0.064;2023-11-21T01:09:31;98309.16;;;9.96;68.66
83691;BME280;73671;43.220;0.064;2023-11-21T01:11:56;98303.72;;;9.96;68.62
83691;BME280;73671;43.220;0.064;2023-11-21T01:14:22;98299.06;;;9.97;68.57
83691;BME280;73671;43.220;0.064;2023-11-21T01:16:47;98293.63;;;9.97;68.03
83691;BME280;73671;43.220;0.064;2023-11-21T01:19:14;98298.97;;;10.01;68.30
83691;BME280;73671;43.220;0.064;2023-11-21T01:21:39;98298.28;;;9.96;67.83
83691;BME280;73671;43.220;0.064;2023-11-21T01:24:05;98295.25;;;9.94;67.38
83691;BME280;73671;43.220;0.064;2023-11-21T01:26:32;98285.53;;;9.93;67.67
83691;BME280;73671;43.220;0.064;2023-11-21T01:28:58;98288.09;;;10.01;68.06
83691;BME280;73671;43.220;0.064;2023-11-21T01:31:23;98288.41;;;9.86;67.24
83691;BME280;73671;43.220;0.064;2023-11-21T01:33:49;98279.31;;;9.93;67.23
83691;BME280;73671;43.220;0.064;2023-11-21T01:36:14;98284.34;;;9.94;67.58
83691;BME280;73671;43.220;0.064;2023-11-21T01:38:39;98287.72;;;9.82;66.54
83691;BME280;73671;43.220;0.064;2023-11-21T01:41:05;98286.53;;;9.83;67.04
83691;BME280;73671;43.220;0.064;2023-11-21T01:43:31;98282.97;;;9.86;67.57
83691;BME280;73671;43.220;0.064;2023-11-21T01:45:57;98285.34;;;9.84;68.05
83691;BME280;73671;43.220;0.064;2023-11-21T01:48:24;98294.59;;;9.87;68.03
83691;BME280;73671;43.220;0.064;2023-11-21T01:50:50;98298.13;;;9.87;67.98
83691;BME280;73671;43.220;0.064;2023-11-21T01:53:16;98295.03;;;9.85;67.70
83691;BME280;73671;43.220;0.064;2023-11-21T01:55:41;98295.47;;;9.84;68.04
83691;BME280;73671;43.220;0.064;2023-11-21T01:58:08;98292.47;;;9.78;68.18
83691;BME280;73671;43.220;0.064;2023-11-21T02:00:34;98291.78;;;9.74;68.60
83691;BME280;73671;43.220;0.064;2023-11-21T02:03:00;98282.44;;;9.75;68.84
83691;BME280;73671;43.220;0.064;2023-11-21T02:05:25;98282.38;;;9.79;68.30
83691;BME280;73671;43.220;0.064;2023-11-21T02:07:51;98277.34;;;9.77;68.04
83691;BME280;73671;43.220;0.064;2023-11-21T02:10:18;98282.19;;;9.69;68.47
83691;BME280;73671;43.220;0.064;2023-11-21T02:12:48;98279.53;;;9.66;68.65
83691;BME280;73671;43.220;0.064;2023-11-21T02:15:16;98282.13;;;9.53;68.75
83691;BME280;73671;43.220;0.064;2023-11-21T02:17:49;98279.00;;;9.54;68.77
83691;BME280;73671;43.220;0.064;2023-11-21T02:20:19;98276.53;;;9.60;68.60
83691;BME280;73671;43.220;0.064;2023-11-21T02:22:55;98279.00;;;9.54;68.88
83691;BME280;73671;43.220;0.064;2023-11-21T02:25:27;98273.81;;;9.60;68.54
83691;BME280;73671;43.220;0.064;2023-11-21T02:27:59;98269.78;;;9.48;70.01
83691;BME280;73671;43.220;0.064;2023-11-21T02:30:25;98262.09;;;9.47;69.59
83691;BME280;73671;43.220;0.064;2023-11-21T02:32:51;98254.13;;;9.36;71.02
83691;BME280;73671;43.220;0.064;2023-11-21T02:35:22;98252.78;;;9.44;70.36
83691;BME280;73671;43.220;0.064;2023-11-21T02:37:48;98250.38;;;9.50;70.11
83691;BME280;73671;43.220;0.064;2023-11-21T02:40:13;98251.13;;;9.50;70.48
83691;BME280;73671;43.220;0.064;2023-11-21T02:42:45;98254.59;;;9.51;69.96
83691;BME280;73671;43.220;0.064;2023-11-21T02:45:13;98251.81;;;9.54;70.48
83691;BME280;73671;43.220;0.064;2023-11-21T02:47:39;98246.22;;;9.62;70.33
83691;BME280;73671;43.220;0.064;2023-11-21T02:50:06;98234.66;;;9.58;69.67
83691;BME280;73671;43.220;0.064;2023-11-21T02:52:33;98232.28;;;9.60;70.32
83691;BME280;73671;43.220;0.064;2023-11-21T02:54:59;98227.53;;;9.64;69.74
83691;BME280;73671;43.220;0.064;2023-11-21T02:57:24;98227.53;;;9.64;70.08
83691;BME280;73671;43.220;0.064;2023-11-21T02:59:50;98223.63;;;9.65;69.64
83691;BME280;73671;43.220;0.064;2023-11-21T03:02:15;98226.59;;;9.70;69.78
83691;BME280;73671;43.220;0.064;2023-11-21T03:04:41;98214.63;;;9.68;69.79
83691;BME280;73671;43.220;0.064;2023-11-21T03:07:08;98211.91;;;9.68;70.14
83691;BME280;73671;43.220;0.064;2023-11-21T03:09:34;98212.59;;;9.72;69.75
83691;BME280;73671;43.220;0.064;2023-11-21T03:11:59;98204.94;;;9.67;69.47
83691;BME280;73671;43.220;0.064;2023-11-21T03:14:24;98209.53;;;9.70;70.09
83691;BME280;73671;43.220;0.064;2023-11-21T03:16:50;98197.00;;;9.56;70.20
83691;BME280;73671;43.220;0.064;2023-11-21T03:19:15;98200.88;;;9.59;69.54
83691;BME280;73671;43.220;0.064;2023-11-21T03:21:40;98206.63;;;9.61;69.96
83691;BME280;73671;43.220;0.064;2023-11-21T03:24:06;98208.34;;;9.54;70.26
83691;BME280;73671;43.220;0.064;2023-11-21T03:26:32;98214.13;;;9.57;69.69
83691;BME280;73671;43.220;0.064;2023-11-21T03:28:58;98199.47;;;9.50;70.09
83691;BME280;73671;43.220;0.064;2023-11-21T03:31:23;98199.41;;;9.54;70.54
83691;BME280;73671;43.220;0.064;2023-11-21T03:33:48;98191.66;;;9.52;70.19
83691;BME280;73671;43.220;0.064;2023-11-21T03:36:14;98194.28;;;9.56;70.31
83691;BME280;73671;43.220;0.064;2023-11-21T03:38:40;98204.34;;;9.59;70.04
83691;BME280;73671;43.220;0.064;2023-11-21T03:41:06;98192.84;;;9.51;71.13
83691;BME280;73671;43.220;0.064;2023-11-21T03:43:32;98194.41;;;9.52;71.15
83691;BME280;73671;43.220;0.064;2023-11-21T03:45:57;98182.75;;;9.52;71.78
83691;BME280;73671;43.220;0.064;2023-11-21T03:48:23;98162.53;;;9.53;71.17
83691;BME280;73671;43.220;0.064;2023-11-21T03:50:48;98173.34;;;9.57;71.13
83691;BME280;73671;43.220;0.064;2023-11-21T03:53:14;98169.34;;;9.61;71.16
83691;BME280;73671;43.220;0.064;2023-11-21T03:55:39;98174.69;;;9.65;71.27
83691;BME280;73671;43.220;0.064;2023-11-21T03:58:04;98172.38;;;9.63;71.17
83691;BME280;73671;43.220;0.064;2023-11-21T04:00:30;98175.03;;;9.67;71.13
83691;BME280;73671;43.220;0.064;2023-11-21T04:02:55;98166.88;;;9.67;70.75
83691;BME280;73671;43.220;0.064;2023-11-21T04:05:21;98171.38;;;9.57;70.99
83691;BME280;73671;43.220;0.064;2023-11-21T04:07:50;98169.78;;;9.60;70.87
83691;BME280;73671;43.220;0.064;2023-11-21T04:10:16;98160.00;;;9.62;71.07
83691;BME280;73671;43.220;0.064;2023-11-21T04:12:41;98162.47;;;9.57;71.44
83691;BME280;73671;43.220;0.064;2023-11-21T04:15:07;98165.94;;;9.57;71.71
83691;BME280;73671;43.220;0.064;2023-11-21T04:17:34;98157.69;;;9.61;70.89
83691;BME280;73671;43.220;0.064;2023-11-21T04:19:59;98161.09;;;9.65;71.48
83691;BME280;73671;43.220;0.064;2023-11-21T04:22:25;98157.63;;;9.64;71.13
83691;BME280;73671;43.220;0.064;2023-11-21T04:24:50;98159.84;;;9.69;70.90
83691;BME280;73671;43.220;0.064;2023-11-21T04:27:16;98155.16;;;9.70;71.55
83691;BME280;73671;43.220;0.064;2023-11-21T04:29:43;98159.84;;;9.69;71.71
83691;BME280;73671;43.220;0.064;2023-11-21T04:32:09;98157.63;;;9.64;71.40
83691;BME280;73671;43.220;0.064;2023-11-21T04:34:34;98152.25;;;9.61;71.60
83691;BME280;73671;43.220;0.064;2023-11-21T04:37:00;98142.59;;;9.60;72.35
83691;BME280;73671;43.220;0.064;2023-11-21T04:39:26;98146.06;;;9.60;72.24
83691;BME280;73671;43.220;0.064;2023-11-21T04:41:51;98133.91;;;9.48;73.12
83691;BME280;73671;43.220;0.064;2023-11-21T04:44:17;98138.75;;;9.57;72.47
83691;BME280;73671;43.220;0.064;2023-11-21T04:46:42;98151.50;;;9.60;72.25
83691;BME280;73671;43.220;0.064;2023-11-21T04:49:08;98147.84;;;9.67;71.79
83691;BME280;73671;43.220;0.064;2023-11-21T04:51:33;98141.31;;;9.64;71.93
83691;BME280;73671;43.220;0.064;2023-11-21T04:53:59;98145.13;;;9.67;71.93
83691;BME280;73671;43.220;0.064;2023-11-21T04:56:24;98137.22;;;9.72;72.22
83691;BME280;73671;43.220;0.064;2023-11-21T04:58:50;98133.22;;;9.77;71.95
83691;BME280;73671;43.220;0.064;2023-11-21T05:01:15;98136.28;;;9.79;72.21
83691;BME280;73671;43.220;0.064;2023-11-21T05:03:41;98136.28;;;9.79;72.29
83691;BME280;73671;43.220;0.064;2023-11-21T05:06:09;98128.06;;;9.83;71.85
83691;BME280;73671;43.220;0.064;2023-11-21T05:08:35;98122.28;;;9.64;72.28
83691;BME280;73671;43.220;0.064;2023-11-21T05:11:02;98124.06;;;9.71;72.59
83691;BME280;73671;43.220;0.064;2023-11-21T05:13:27;98123.56;;;9.60;72.98
83691;BME280;73671;43.220;0.064;2023-11-21T05:15:54;98127.97;;;9.53;73.10
83691;BME280;73671;43.220;0.064;2023-11-21T05:18:22;98124.41;;;9.57;72.79
83691;BME280;73671;43.220;0.064;2023-11-21T05:20:47;98111.47;;;9.61;72.49
83691;BME280;73671;43.220;0.064;2023-11-21T05:23:12;98112.59;;;9.63;72.83
83691;BME280;73671;43.220;0.064;2023-11-21T05:25:38;98117.25;;;9.63;73.09
83691;BME280;73671;43.220;0.064;2023-11-21T05:28:03;98126.63;;;9.62;73.54
83691;BME280;73671;43.220;0.064;2023-11-21T05:30:29;98128.13;;;9.63;73.45
83691;BME280;73671;43.220;0.064;2023-11-21T05:32:54;98126.63;;;9.62;73.82
83691;BME280;73671;43.220;0.064;2023-11-21T05:35:20;98118.81;;;9.64;73.19
83691;BME280;73671;43.220;0.064;2023-11-21T05:37:46;98114.13;;;9.64;73.01
83691;BME280;73671;43.220;0.064;2023-11-21T05:40:12;98118.97;;;9.57;73.64
83691;BME280;73671;43.220;0.064;2023-11-21T05:42:39;98124.25;;;9.64;73.23
83691;BME280;73671;43.220;0.064;2023-11-21T05:45:04;98128.06;;;9.66;73.57
83691;BME280;73671;43.220;0.064;2023-11-21T05:47:46;98123.56;;;9.60;73.84
83691;BME280;73671;43.220;0.064;2023-11-21T05:50:14;98125.88;;;9.61;74.08
83691;BME280;73671;43.220;0.064;2023-11-21T05:52:44;98125.06;;;9.61;73.94
83691;BME280;73671;43.220;0.064;2023-11-21T05:55:10;98123.47;;;9.63;73.44
83691;BME280;73671;43.220;0.064;2023-11-21T05:57:37;98130.34;;;9.68;73.40
83691;BME280;73671;43.220;0.064;2023-11-21T06:00:07;98133.75;;;9.72;73.25
83691;BME280;73671;43.220;0.064;2023-11-21T06:02:46;98131.38;;;9.74;73.59
83691;BME280;73671;43.220;0.064;2023-11-21T06:05:12;98138.66;;;9.77;73.47
83691;BME280;73671;43.220;0.064;2023-11-21T06:07:38;98140.22;;;9.78;73.37
83691;BME280;73671;43.220;0.064;2023-11-21T06:10:07;98144.97;;;9.74;73.41
83691;BME280;73671;43.220;0.064;2023-11-21T06:12:38;98142.31;;;9.70;74.33
83691;BME280;73671;43.220;0.064;2023-11-21T06:15:05;98143.75;;;9.75;73.88
83691;BME280;73671;43.220;0.064;2023-11-21T06:17:34;98144.22;;;9.73;73.67
83691;BME280;73671;43.220;0.064;2023-11-21T06:20:04;98151.91;;;9.75;73.78
83691;BME280;73671;43.220;0.064;2023-11-21T06:22:38;98153.38;;;9.80;73.78
83691;BME280;73671;43.220;0.064;2023-11-21T06:25:04;98152.94;;;9.81;74.09
83691;BME280;73671;43.220;0.064;2023-11-21T06:27:37;98154.97;;;9.77;74.13
83691;BME280;73671;43.220;0.064;2023-11-21T06:30:03;98156.59;;;9.74;74.50
83691;BME280;73671;43.220;0.064;2023-11-21T06:32:29;98151.25;;;9.71;74.86
83691;BME280;73671;43.220;0.064;2023-11-21T06:34:58;98145.66;;;9.78;74.36
83691;BME280;73671;43.220;0.064;2023-11-21T06:37:27;98160.25;;;9.84;74.33
83691;BME280;73671;43.220;0.064;2023-11-21T06:39:53;98165.69;;;9.84;74.58
83691;BME280;73671;43.220;0.064;2023-11-21T06:42:18;98162.56;;;9.86;74.63
83691;BME280;73671;43.220;0.064;2023-11-21T06:44:47;98161.69;;;9.89;74.27
83691;BME280;73671;43.220;0.064;2023-11-21T06:47:13;98161.69;;;9.89;74.24
83691;BME280;73671;43.220;0.064;2023-11-21T06:49:39;98164.00;;;9.90;74.49
83691;BME280;73671;43.220;0.064;2023-11-21T06:52:04;98164.34;;;9.92;74.38
83691;BME280;73671;43.220;0.064;2023-11-21T06:54:33;98163.13;;;9.93;74.76
83691;BME280;73671;43.220;0.064;2023-11-21T06:56:59;98167.91;;;9.89;74.72
83691;BME280;73671;43.220;0.064;2023-11-21T06:59:24;98174.03;;;9.93;74.81
83691;BME280;73671;43.220;0.064;2023-11-21T07:01:50;98175.22;;;9.92;74.60
83691;BME280;73671;43.220;0.064;2023-11-21T07:04:15;98175.63;;;9.91;74.97
83691;BME280;73671;43.220;0.064;2023-11-21T07:06:40;98177.84;;;9.96;74.45
83691;BME280;73671;43.220;0.064;2023-11-21T07:09:06;98185.59;;;9.97;74.89
83691;BME280;73671;43.220;0.064;2023-11-21T07:11:34;98181.31;;;9.96;74.63
83691;BME280;73671;43.220;0.064;2023-11-21T07:13:59;98189.41;;;10.00;74.53
83691;BME280;73671;43.220;0.064;2023-11-21T07:16:27;98186.28;;;10.02;74.83
83691;BME280;73671;43.220;0.064;2023-11-21T07:18:53;98186.28;;;10.02;74.89
83691;BME280;73671;43.220;0.064;2023-11-21T07:21:20;98193.16;;;10.06;74.20
83691;BME280;73671;43.220;0.064;2023-11-21T07:23:46;98194.25;;;10.09;74.62
83691;BME280;73671;43.220;0.064;2023-11-21T07:26:11;98194.59;;;10.11;74.62
83691;BME280;73671;43.220;0.064;2023-11-21T07:28:36;98190.69;;;10.12;74.43
83691;BME280;73671;43.220;0.064;2023-11-21T07:31:02;98191.69;;;10.18;74.77
83691;BME280;73671;43.220;0.064;2023-11-21T07:33:28;98191.59;;;10.22;74.72
83691;BME280;73671;43.220;0.064;2023-11-21T07:35:54;98195.41;;;10.24;74.68
83691;BME280;73671;43.220;0.064;2023-11-21T07:38:19;98195.72;;;10.30;74.64
83691;BME280;73671;43.220;0.064;2023-11-21T07:40:44;98188.66;;;10.32;75.00
83691;BME280;73671;43.220;0.064;2023-11-21T07:43:10;98192.22;;;10.29;74.75
83691;BME280;73671;43.220;0.064;2023-11-21T07:45:36;98200.19;;;10.36;74.94
83691;BME280;73671;43.220;0.064;2023-11-21T07:48:01;98210.41;;;10.32;75.04
83691;BME280;73671;43.220;0.064;2023-11-21T07:50:28;98204.88;;;10.36;74.66
83691;BME280;73671;43.220;0.064;2023-11-21T07:52:54;98203.25;;;10.38;74.65
83691;BME280;73671;43.220;0.064;2023-11-21T07:55:19;98211.00;;;10.40;75.07
83691;BME280;73671;43.220;0.064;2023-11-21T07:57:45;98207.06;;;10.41;74.83
83691;BME280;73671;43.220;0.064;2023-11-21T08:00:11;98217.13;;;10.44;74.69
83691;BME280;73671;43.220;0.064;2023-11-21T08:02:40;98214.81;;;10.43;75.51
83691;BME280;73671;43.220;0.064;2023-11-21T08:05:11;98210.47;;;10.45;74.97
83691;BME280;73671;43.220;0.064;2023-11-21T08:07:37;98212.44;;;10.45;74.92
83691;BME280;73671;43.220;0.064;2023-11-21T08:10:03;98217.34;;;10.50;74.72
83691;BME280;73671;43.220;0.064;2023-11-21T08:12:30;98220.41;;;10.52;74.94
83691;BME280;73671;43.220;0.064;2023-11-21T08:14:55;98225.41;;;10.53;74.99
83691;BME280;73671;43.220;0.064;2023-11-21T08:17:21;98219.56;;;10.55;74.92
83691;BME280;73671;43.220;0.064;2023-11-21T08:19:46;98219.56;;;10.55;74.91
83691;BME280;73671;43.220;0.064;2023-11-21T08:22:15;98225.34;;;10.57;75.03
83691;BME280;73671;43.220;0.064;2023-11-21T08:24:43;98231.47;;;10.61;74.81
83691;BME280;73671;43.220;0.064;2023-11-21T08:27:08;98221.66;;;10.64;75.38
83691;BME280;73671;43.220;0.064;2023-11-21T08:29:34;98221.56;;;10.67;75.41
83691;BME280;73671;43.220;0.064;2023-11-21T08:32:01;98222.25;;;10.71;75.14
83691;BME280;73671;43.220;0.064;2023-11-21T08:34:27;98221.72;;;10.76;75.02
83691;BME280;73671;43.220;0.064;2023-11-21T08:36:53;98222.72;;;10.82;75.23
83691;BME280;73671;43.220;0.064;2023-11-21T08:39:19;98230.78;;;10.86;75.11
83691;BME280;73671;43.220;0.064;2023-11-21T08:41:44;98230.72;;;10.90;75.08
83691;BME280;73671;43.220;0.064;2023-11-21T08:44:09;98227.44;;;10.95;75.21
83691;BME280;73671;43.220;0.064;2023-11-21T08:46:36;98234.75;;;10.98;74.92
83691;BME280;73671;43.220;0.064;2023-11-21T08:49:02;98234.22;;;11.03;75.36
83691;BME280;73671;43.220;0.064;2023-11-21T08:51:27;98234.22;;;11.03;74.98
83691;BME280;73671;43.220;0.064;2023-11-21T08:53:54;98240.34;;;11.07;75.12
83691;BME280;73671;43.220;0.064;2023-11-21T08:56:20;98236.44;;;11.08;74.91
83691;BME280;73671;43.220;0.064;2023-11-21T08:58:46;98242.66;;;11.09;74.81
83691;BME280;73671;43.220;0.064;2023-11-21T09:01:15;98237.94;;;11.09;75.30
83691;BME280;73671;43.220;0.064;2023-11-21T09:03:42;98254.63;;;11.11;74.88
83691;BME280;73671;43.220;0.064;2023-11-21T09:06:09;98247.97;;;11.12;75.08
83691;BME280;73671;43.220;0.064;2023-11-21T09:08:35;98254.19;;;11.13;75.10
83691;BME280;73671;43.220;0.064;2023-11-21T09:11:00;98251.78;;;11.15;75.25
83691;BME280;73671;43.220;0.064;2023-11-21T09:13:25;98244.41;;;11.15;75.27
83691;BME280;73671;43.220;0.064;2023-11-21T09:15:51;98250.16;;;11.17;75.01
83691;BME280;73671;43.220;0.064;2023-11-21T09:18:16;98246.25;;;11.18;74.88
83691;BME280;73671;43.220;0.064;2023-11-21T09:20:42;98248.13;;;11.21;75.03
83691;BME280;73671;43.220;0.064;2023-11-21T09:23:10;98259.34;;;11.23;75.13
83691;BME280;73671;43.220;0.064;2023-11-21T09:25:36;98256.97;;;11.25;74.60
83691;BME280;73671;43.220;0.064;2023-11-21T09:28:03;98249.97;;;11.24;75.29
83691;BME280;73671;43.220;0.064;2023-11-21T09:30:33;98257.72;;;11.26;75.27
83691;BME280;73671;43.220;0.064;2023-11-21T09:32:58;98254.56;;;11.28;75.27
83691;BME280;73671;43.220;0.064;2023-11-21T09:35:24;98255.34;;;11.28;75.00
83691;BME280;73671;43.220;0.064;2023-11-21T09:37:49;98261.53;;;11.29;75.23
83691;BME280;73671;43.220;0.064;2023-11-21T09:40:15;98262.22;;;11.33;74.92
83691;BME280;73671;43.220;0.064;2023-11-21T09:43:05;98259.16;;;11.31;75.40
83691;BME280;73671;43.220;0.064;2023-11-21T09:45:35;98258.59;;;11.36;75.35
83691;BME280;73671;43.220;0.064;2023-11-21T09:48:01;98265.91;;;11.39;75.22
83691;BME280;73671;43.220;0.064;2023-11-21T09:50:28;98265.50;;;11.40;75.07
83691;BME280;73671;43.220;0.064;2023-11-21T09:55:30;98268.88;;;11.44;74.71
83691;BME280;73671;43.220;0.064;2023-11-21T09:58:02;98268.47;;;11.46;74.99
83691;BME280;73671;43.220;0.064;2023-11-21T10:00:28;98275.84;;;11.45;74.78
83691;BME280;73671;43.220;0.064;2023-11-21T10:02:58;98275.44;;;11.47;75.02
83691;BME280;73671;43.220;0.064;2023-11-21T10:05:23;98279.69;;;11.48;75.21
83691;BME280;73671;43.220;0.064;2023-11-21T10:07:53;98283.63;;;11.47;75.19
83691;BME280;73671;43.220;0.064;2023-11-21T10:10:23;98281.97;;;11.50;75.04
83691;BME280;73671;43.220;0.064;2023-11-21T10:12:51;98277.63;;;11.52;74.96
83691;BME280;73671;43.220;0.064;2023-11-21T10:15:24;98271.28;;;11.55;74.54
83691;BME280;73671;43.220;0.064;2023-11-21T10:17:53;98266.50;;;11.59;75.15
83691;BME280;73671;43.220;0.064;2023-11-21T10:20:20;98271.88;;;11.63;74.88
83691;BME280;73671;43.220;0.064;2023-11-21T10:22:48;98265.97;;;11.64;75.22
83691;BME280;73671;43.220;0.064;2023-11-21T10:25:14;98264.78;;;11.65;74.92
83691;BME280;73671;43.220;0.064;2023-11-21T10:27:40;98264.78;;;11.65;74.27
83691;BME280;73671;43.220;0.064;2023-11-21T10:30:07;98275.34;;;11.63;74.74
83691;BME280;73671;43.220;0.064;2023-11-21T10:32:33;98271.53;;;11.61;74.43
83691;BME280;73671;43.220;0.064;2023-11-21T10:34:59;98273.50;;;11.60;74.48
83691;BME280;73671;43.220;0.064;2023-11-21T10:37:35;98268.47;;;11.59;74.10
83691;BME280;73671;43.220;0.064;2023-11-21T10:40:00;98269.22;;;11.59;74.18
83691;BME280;73671;43.220;0.064;2023-11-21T10:42:25;98260.63;;;11.61;74.22
83691;BME280;73671;43.220;0.064;2023-11-21T10:44:52;98262.91;;;11.62;74.92
83691;BME280;73671;43.220;0.064;2023-11-21T10:47:19;98256.16;;;11.67;74.78
83691;BME280;73671;43.220;0.064;2023-11-21T10:49:45;98248.31;;;11.82;74.69
83691;BME280;73671;43.220;0.064;2023-11-21T10:52:13;98252.13;;;12.23;74.30
83691;BME280;73671;43.220;0.064;2023-11-21T10:54:45;98255.19;;;12.60;73.89
83691;BME280;73671;43.220;0.064;2023-11-21T10:57:13;98248.38;;;12.77;72.90
83691;BME280;73671;43.220;0.064;2023-11-21T10:59:41;98259.81;;;12.85;72.82
83691;BME280;73671;43.220;0.064;2023-11-21T11:02:19;98248.44;;;12.86;71.42
83691;BME280;73671;43.220;0.064;2023-11-21T11:04:48;98249.66;;;12.85;71.45
83691;BME280;73671;43.220;0.064;2023-11-21T11:07:14;98246.59;;;12.83;71.33
83691;BME280;73671;43.220;0.064;2023-11-21T11:09:41;98241.25;;;12.80;71.23
83691;BME280;73671;43.220;0.064;2023-11-21T11:12:08;98244.66;;;12.71;71.20
83691;BME280;73671;43.220;0.064;2023-11-21T11:14:35;98246.75;;;12.67;71.45
83691;BME280;73671;43.220;0.064;2023-11-21T11:17:02;98245.81;;;12.61;71.40
83691;BME280;73671;43.220;0.064;2023-11-21T11:19:29;98241.47;;;12.50;71.39
83691;BME280;73671;43.220;0.064;2023-11-21T11:22:08;98244.13;;;12.41;71.88
83691;BME280;73671;43.220;0.064;2023-11-21T11:25:01;98241.22;;;12.23;71.03
83691;BME280;73671;43.220;0.064;2023-11-21T11:27:39;98245.06;;;12.13;71.00
83691;BME280;73671;43.220;0.064;2023-11-21T11:30:26;98242.00;;;12.11;71.84
83691;BME280;73671;43.220;0.064;2023-11-21T11:38:33;98243.94;;;12.23;72.49
83691;BME280;73671;43.220;0.064;2023-11-21T11:41:01;98245.44;;;12.24;72.69
83691;BME280;73671;43.220;0.064;2023-11-21T11:43:30;98245.34;;;12.27;72.20
83691;BME280;73671;43.220;0.064;2023-11-21T11:45:59;98250.06;;;12.27;72.29
83691;BME280;73671;43.220;0.064;2023-11-21T11:48:25;98250.06;;;12.27;72.07
83691;BME280;73671;43.220;0.064;2023-11-21T11:51:04;98238.47;;;12.23;71.68
83691;BME280;73671;43.220;0.064;2023-11-21T11:53:36;98244.81;;;12.20;72.26
83691;BME280;73671;43.220;0.064;2023-11-21T11:56:22;98248.06;;;12.15;71.95
83691;BME280;73671;43.220;0.064;2023-11-21T11:58:49;98248.41;;;12.17;71.84
83691;BME280;73671;43.220;0.064;2023-11-21T12:01:19;98247.22;;;12.18;71.80
83691;BME280;73671;43.220;0.064;2023-11-21T12:06:36;98244.03;;;12.19;71.62
83691;BME280;73671;43.220;0.064;2023-11-21T12:09:02;98253.00;;;12.20;71.74
83691;BME280;73671;43.220;0.064;2023-11-21T12:11:31;98257.47;;;12.14;71.38
83691;BME280;73671;43.220;0.064;2023-11-21T12:13:58;98248.22;;;12.11;71.20
83691;BME280;73671;43.220;0.064;2023-11-21T12:16:25;98247.44;;;12.11;71.02
83691;BME280;73671;43.220;0.064;2023-11-21T12:18:53;98248.06;;;12.15;70.81
83691;BME280;73671;43.220;0.064;2023-11-21T12:21:19;98251.13;;;12.17;71.36
83691;BME280;73671;43.220;0.064;2023-11-21T12:23:45;98248.75;;;12.19;71.52
83691;BME280;73671;43.220;0.064;2023-11-21T12:26:13;98255.75;;;12.20;71.44
83691;BME280;73671;43.220;0.064;2023-11-21T12:28:39;98251.78;;;12.21;70.99
83691;BME280;73671;43.220;0.064;2023-11-21T12:31:05;98242.72;;;12.24;70.65
83691;BME280;73671;43.220;0.064;2023-11-21T12:33:32;98239.75;;;12.31;70.29
83691;BME280;73671;43.220;0.064;2023-11-21T12:35:58;98244.88;;;12.29;70.33
83691;BME280;73671;43.220;0.064;2023-11-21T12:38:24;98243.22;;;12.44;70.28
83691;BME280;73671;43.220;0.064;2023-11-21T12:40:50;98248.94;;;12.72;70.34
83691;BME280;73671;43.220;0.064;2023-11-21T12:43:17;98244.06;;;13.55;68.97
83691;BME280;73671;43.220;0.064;2023-11-21T12:45:43;98250.06;;;14.21;67.72
83691;BME280;73671;43.220;0.064;2023-11-21T12:48:09;98253.16;;;14.42;66.79
83691;BME280;73671;43.220;0.064;2023-11-21T12:50:37;98253.78;;;14.46;66.68
83691;BME280;73671;43.220;0.064;2023-11-21T12:53:06;98251.94;;;14.34;66.00
83691;BME280;73671;43.220;0.064;2023-11-21T12:55:34;98262.84;;;14.25;66.06
83691;BME280;73671;43.220;0.064;2023-11-21T12:58:04;98249.44;;;14.17;66.24
83691;BME280;73671;43.220;0.064;2023-11-21T13:03:04;98249.41;;;13.99;65.97
83691;BME280;73671;43.220;0.064;2023-11-21T13:05:34;98250.84;;;13.82;65.92
83691;BME280;73671;43.220;0.064;2023-11-21T13:08:02;98254.47;;;13.69;65.55
83691;BME280;73671;43.220;0.064;2023-11-21T13:10:31;98258.03;;;13.57;66.30
83691;BME280;73671;43.220;0.064;2023-11-21T13:12:58;98261.50;;;13.48;66.28
83691;BME280;73671;43.220;0.064;2023-11-21T13:15:25;98262.63;;;13.38;67.09
83691;BME280;73671;43.220;0.064;2023-11-21T13:17:51;98265.34;;;13.29;67.13